sensor_id;sensor_type;location;lat;lon;timestamp;P1;durP1;ratioP1;P2;durP2;ratioP2
79670;SDS011;69137;50.878;8.050;2023-06-26T00:01:29;6.38;;;4.90;;
79670;SDS011;69137;50.878;8.050;2023-06-26T00:03:56;7.22;;;5.25;;
79670;SDS011;69137;50.878;8.050;2023-06-26T00:06:21;7.88;;;5.45;;
79670;SDS011;69137;50.878;8.050;2023-06-26T00:08:51;6.95;;;5.20;;
79670;SDS011;69137;50.878;8.050;2023-06-26T00:11:18;7.97;;;5.22;;
79670;SDS011;69137;50.878;8.050;2023-06-26T00:13:44;7.43;;;5.18;;
79670;SDS011;69137;50.878;8.050;2023-06-26T00:16:09;6.75;;;5.28;;
79670;SDS011;69137;50.878;8.050;2023-06-26T00:18:34;6.90;;;5.53;;
79670;SDS011;69137;50.878;8.050;2023-06-26T00:21:00;6.97;;;5.03;;
79670;SDS011;69137;50.878;8.050;2023-06-26T00:23:25;7.15;;;5.55;;
79670;SDS011;69137;50.878;8.050;2023-06-26T00:25:52;6.80;;;5.40;;
79670;SDS011;69137;50.878;8.050;2023-06-26T00:28:18;7.32;;;5.72;;
79670;SDS011;69137;50.878;8.050;2023-06-26T00:30:43;7.05;;;4.82;;
79670;SDS011;69137;50.878;8.050;2023-06-26T00:33:09;6.90;;;5.63;;
79670;SDS011;69137;50.878;8.050;2023-06-26T00:35:34;7.20;;;5.63;;
79670;SDS011;69137;50.878;8.050;2023-06-26T00:38:00;8.07;;;5.18;;
79670;SDS011;69137;50.878;8.050;2023-06-26T00:40:26;6.65;;;5.40;;
79670;SDS011;69137;50.878;8.050;2023-06-26T00:42:52;7.63;;;5.68;;
79670;SDS011;69137;50.878;8.050;2023-06-26T00:45:18;8.38;;;6.13;;
79670;SDS011;69137;50.878;8.050;2023-06-26T00:47:44;6.10;;;4.65;;
79670;SDS011;69137;50.878;8.050;2023-06-26T00:50:09;8.18;;;5.63;;
79670;SDS011;69137;50.878;8.050;2023-06-26T00:52:35;7.85;;;5.30;;
79670;SDS011;69137;50.878;8.050;2023-06-26T00:55:01;7.88;;;5.72;;
79670;SDS011;69137;50.878;8.050;2023-06-26T00:57:27;8.13;;;5.75;;
79670;SDS011;69137;50.878;8.050;2023-06-26T00:59:52;9.32;;;5.20;;
79670;SDS011;69137;50.878;8.050;2023-06-26T01:02:18;8.02;;;5.43;;
79670;SDS011;69137;50.878;8.050;2023-06-26T01:04:51;9.40;;;5.55;;
79670;SDS011;69137;50.878;8.050;2023-06-26T01:07:18;7.78;;;5.18;;
79670;SDS011;69137;50.878;8.050;2023-06-26T01:09:47;7.90;;;5.90;;
79670;SDS011;69137;50.878;8.050;2023-06-26T01:12:14;8.13;;;5.15;;
79670;SDS011;69137;50.878;8.050;2023-06-26T01:14:39;7.03;;;5.13;;
79670;SDS011;69137;50.878;8.050;2023-06-26T01:17:05;8.30;;;5.65;;
79670;SDS011;69137;50.878;8.050;2023-06-26T01:19:32;9.50;;;5.40;;
79670;SDS011;69137;50.878;8.050;2023-06-26T01:27:57;9.45;;;5.93;;
79670;SDS011;69137;50.878;8.050;2023-06-26T01:30:24;8.55;;;5.35;;
79670;SDS011;69137;50.878;8.050;2023-06-26T01:32:50;8.70;;;6.18;;
79670;SDS011;69137;50.878;8.050;2023-06-26T01:35:16;10.25;;;5.88;;
79670;SDS011;69137;50.878;8.050;2023-06-26T01:37:42;8.63;;;5.70;;
79670;SDS011;69137;50.878;8.050;2023-06-26T01:40:08;9.15;;;5.50;;
79670;SDS011;69137;50.878;8.050;2023-06-26T01:42:34;7.03;;;5.35;;
79670;SDS011;69137;50.878;8.050;2023-06-26T01:45:02;10.02;;;5.10;;
79670;SDS011;69137;50.878;8.050;2023-06-26T01:47:49;7.03;;;5.20;;
79670;SDS011;69137;50.878;8.050;2023-06-26T01:50:22;8.15;;;5.55;;
79670;SDS011;69137;50.878;8.050;2023-06-26T01:58:09;7.90;;;5.53;;
79670;SDS011;69137;50.878;8.050;2023-06-26T02:00:34;9.07;;;5.72;;
79670;SDS011;69137;50.878;8.050;2023-06-26T02:03:01;7.30;;;5.22;;
79670;SDS011;69137;50.878;8.050;2023-06-26T02:05:28;8.18;;;5.53;;
79670;SDS011;69137;50.878;8.050;2023-06-26T02:07:55;7.50;;;5.82;;
79670;SDS011;69137;50.878;8.050;2023-06-26T02:10:21;8.38;;;5.70;;
79670;SDS011;69137;50.878;8.050;2023-06-26T02:12:46;7.80;;;5.20;;
79670;SDS011;69137;50.878;8.050;2023-06-26T02:15:12;9.52;;;6.22;;
79670;SDS011;69137;50.878;8.050;2023-06-26T02:17:37;7.13;;;5.88;;
79670;SDS011;69137;50.878;8.050;2023-06-26T02:20:02;9.38;;;6.13;;
79670;SDS011;69137;50.878;8.050;2023-06-26T02:22:28;7.90;;;5.55;;
79670;SDS011;69137;50.878;8.050;2023-06-26T02:24:54;8.15;;;5.50;;
79670;SDS011;69137;50.878;8.050;2023-06-26T02:27:19;8.73;;;5.80;;
79670;SDS011;69137;50.878;8.050;2023-06-26T02:29:45;7.97;;;5.10;;
79670;SDS011;69137;50.878;8.050;2023-06-26T02:32:10;7.13;;;5.53;;
79670;SDS011;69137;50.878;8.050;2023-06-26T02:34:35;9.02;;;6.10;;
79670;SDS011;69137;50.878;8.050;2023-06-26T02:37:01;8.30;;;6.07;;
79670;SDS011;69137;50.878;8.050;2023-06-26T02:39:27;7.22;;;5.63;;
79670;SDS011;69137;50.878;8.050;2023-06-26T02:41:52;8.98;;;6.50;;
79670;SDS011;69137;50.878;8.050;2023-06-26T02:44:18;9.75;;;5.40;;
79670;SDS011;69137;50.878;8.050;2023-06-26T02:46:44;9.75;;;6.03;;
79670;SDS011;69137;50.878;8.050;2023-06-26T02:49:09;9.65;;;5.78;;
79670;SDS011;69137;50.878;8.050;2023-06-26T02:51:35;10.10;;;5.70;;
79670;SDS011;69137;50.878;8.050;2023-06-26T02:54:00;9.95;;;6.20;;
79670;SDS011;69137;50.878;8.050;2023-06-26T02:56:26;10.05;;;5.80;;
79670;SDS011;69137;50.878;8.050;2023-06-26T02:58:54;6.85;;;5.53;;
79670;SDS011;69137;50.878;8.050;2023-06-26T03:01:20;8.32;;;5.55;;
79670;SDS011;69137;50.878;8.050;2023-06-26T03:03:45;8.02;;;5.68;;
79670;SDS011;69137;50.878;8.050;2023-06-26T03:06:12;8.68;;;6.28;;
79670;SDS011;69137;50.878;8.050;2023-06-26T03:08:38;9.50;;;5.32;;
79670;SDS011;69137;50.878;8.050;2023-06-26T03:11:04;8.93;;;6.03;;
79670;SDS011;69137;50.878;8.050;2023-06-26T03:13:31;10.32;;;6.45;;
79670;SDS011;69137;50.878;8.050;2023-06-26T03:15:57;9.02;;;6.35;;
79670;SDS011;69137;50.878;8.050;2023-06-26T03:18:23;7.78;;;6.05;;
79670;SDS011;69137;50.878;8.050;2023-06-26T03:20:48;7.20;;;5.72;;
79670;SDS011;69137;50.878;8.050;2023-06-26T03:23:13;7.93;;;5.93;;
79670;SDS011;69137;50.878;8.050;2023-06-26T03:25:39;8.30;;;5.47;;
79670;SDS011;69137;50.878;8.050;2023-06-26T03:28:04;8.55;;;5.88;;
79670;SDS011;69137;50.878;8.050;2023-06-26T03:30:30;7.28;;;5.47;;
79670;SDS011;69137;50.878;8.050;2023-06-26T03:32:55;10.25;;;6.38;;
79670;SDS011;69137;50.878;8.050;2023-06-26T03:35:21;10.50;;;6.60;;
79670;SDS011;69137;50.878;8.050;2023-06-26T03:37:48;8.25;;;5.82;;
79670;SDS011;69137;50.878;8.050;2023-06-26T03:40:14;9.43;;;5.85;;
79670;SDS011;69137;50.878;8.050;2023-06-26T03:42:39;9.15;;;5.82;;
79670;SDS011;69137;50.878;8.050;2023-06-26T03:45:05;8.48;;;5.75;;
79670;SDS011;69137;50.878;8.050;2023-06-26T03:47:30;10.93;;;6.10;;
79670;SDS011;69137;50.878;8.050;2023-06-26T03:49:56;6.80;;;5.47;;
79670;SDS011;69137;50.878;8.050;2023-06-26T03:52:21;8.10;;;5.75;;
79670;SDS011;69137;50.878;8.050;2023-06-26T03:54:47;9.80;;;5.75;;
79670;SDS011;69137;50.878;8.050;2023-06-26T03:57:13;7.57;;;5.50;;
79670;SDS011;69137;50.878;8.050;2023-06-26T03:59:39;8.18;;;5.80;;
79670;SDS011;69137;50.878;8.050;2023-06-26T04:02:04;9.40;;;6.00;;
79670;SDS011;69137;50.878;8.050;2023-06-26T04:04:30;9.15;;;5.72;;
79670;SDS011;69137;50.878;8.050;2023-06-26T04:06:55;8.70;;;6.07;;
79670;SDS011;69137;50.878;8.050;2023-06-26T04:09:22;9.30;;;6.05;;
79670;SDS011;69137;50.878;8.050;2023-06-26T04:11:47;10.07;;;6.15;;
79670;SDS011;69137;50.878;8.050;2023-06-26T04:14:12;8.98;;;6.15;;
79670;SDS011;69137;50.878;8.050;2023-06-26T04:16:38;11.43;;;6.15;;
79670;SDS011;69137;50.878;8.050;2023-06-26T04:19:04;8.60;;;5.63;;
79670;SDS011;69137;50.878;8.050;2023-06-26T04:21:30;7.97;;;6.03;;
79670;SDS011;69137;50.878;8.050;2023-06-26T04:23:55;8.07;;;5.70;;
79670;SDS011;69137;50.878;8.050;2023-06-26T04:26:21;8.63;;;5.80;;
79670;SDS011;69137;50.878;8.050;2023-06-26T04:28:46;8.43;;;6.35;;
79670;SDS011;69137;50.878;8.050;2023-06-26T04:31:12;9.80;;;6.88;;
79670;SDS011;69137;50.878;8.050;2023-06-26T04:33:37;12.23;;;6.05;;
79670;SDS011;69137;50.878;8.050;2023-06-26T04:36:03;7.43;;;5.50;;
79670;SDS011;69137;50.878;8.050;2023-06-26T04:38:32;7.72;;;6.03;;
79670;SDS011;69137;50.878;8.050;2023-06-26T04:40:58;7.45;;;5.80;;
79670;SDS011;69137;50.878;8.050;2023-06-26T04:43:24;11.15;;;7.05;;
79670;SDS011;69137;50.878;8.050;2023-06-26T04:45:49;8.55;;;6.03;;
79670;SDS011;69137;50.878;8.050;2023-06-26T04:48:14;11.13;;;6.60;;
79670;SDS011;69137;50.878;8.050;2023-06-26T04:50:40;8.55;;;5.80;;
79670;SDS011;69137;50.878;8.050;2023-06-26T04:53:05;8.40;;;6.03;;
79670;SDS011;69137;50.878;8.050;2023-06-26T04:55:31;8.77;;;6.40;;
79670;SDS011;69137;50.878;8.050;2023-06-26T04:57:56;10.25;;;6.35;;
79670;SDS011;69137;50.878;8.050;2023-06-26T05:00:22;8.32;;;6.32;;
79670;SDS011;69137;50.878;8.050;2023-06-26T05:02:47;10.43;;;6.60;;
79670;SDS011;69137;50.878;8.050;2023-06-26T05:05:13;7.82;;;6.35;;
79670;SDS011;69137;50.878;8.050;2023-06-26T05:07:38;9.57;;;6.72;;
79670;SDS011;69137;50.878;8.050;2023-06-26T05:10:06;8.82;;;6.03;;
79670;SDS011;69137;50.878;8.050;2023-06-26T05:12:32;8.10;;;6.57;;
79670;SDS011;69137;50.878;8.050;2023-06-26T05:14:57;9.15;;;6.53;;
79670;SDS011;69137;50.878;8.050;2023-06-26T05:17:22;11.00;;;6.90;;
79670;SDS011;69137;50.878;8.050;2023-06-26T05:19:48;16.92;;;7.30;;
79670;SDS011;69137;50.878;8.050;2023-06-26T05:22:13;11.55;;;6.28;;
79670;SDS011;69137;50.878;8.050;2023-06-26T05:24:40;10.30;;;7.10;;
79670;SDS011;69137;50.878;8.050;2023-06-26T05:27:06;11.93;;;7.03;;
79670;SDS011;69137;50.878;8.050;2023-06-26T05:29:32;16.73;;;6.78;;
79670;SDS011;69137;50.878;8.050;2023-06-26T05:31:58;9.35;;;6.63;;
79670;SDS011;69137;50.878;8.050;2023-06-26T05:34:24;9.75;;;6.22;;
79670;SDS011;69137;50.878;8.050;2023-06-26T05:36:53;7.70;;;6.00;;
79670;SDS011;69137;50.878;8.050;2023-06-26T05:39:22;11.63;;;6.15;;
79670;SDS011;69137;50.878;8.050;2023-06-26T05:41:48;10.38;;;6.70;;
79670;SDS011;69137;50.878;8.050;2023-06-26T05:44:13;8.45;;;5.50;;
79670;SDS011;69137;50.878;8.050;2023-06-26T05:46:39;8.52;;;5.20;;
79670;SDS011;69137;50.878;8.050;2023-06-26T05:49:04;8.45;;;5.45;;
79670;SDS011;69137;50.878;8.050;2023-06-26T05:51:30;10.18;;;6.45;;
79670;SDS011;69137;50.878;8.050;2023-06-26T05:53:55;9.13;;;6.18;;
79670;SDS011;69137;50.878;8.050;2023-06-26T05:56:21;7.32;;;5.70;;
79670;SDS011;69137;50.878;8.050;2023-06-26T05:58:47;9.02;;;5.60;;
79670;SDS011;69137;50.878;8.050;2023-06-26T06:01:12;7.47;;;5.47;;
79670;SDS011;69137;50.878;8.050;2023-06-26T06:03:38;8.25;;;6.00;;
79670;SDS011;69137;50.878;8.050;2023-06-26T06:06:05;7.35;;;4.97;;
79670;SDS011;69137;50.878;8.050;2023-06-26T06:08:30;12.73;;;6.65;;
79670;SDS011;69137;50.878;8.050;2023-06-26T06:10:56;12.32;;;5.63;;
79670;SDS011;69137;50.878;8.050;2023-06-26T06:13:21;8.90;;;6.28;;
79670;SDS011;69137;50.878;8.050;2023-06-26T06:15:47;9.20;;;5.68;;
79670;SDS011;69137;50.878;8.050;2023-06-26T06:18:12;9.48;;;5.88;;
79670;SDS011;69137;50.878;8.050;2023-06-26T06:20:37;10.25;;;6.28;;
79670;SDS011;69137;50.878;8.050;2023-06-26T06:23:03;9.27;;;6.32;;
79670;SDS011;69137;50.878;8.050;2023-06-26T06:25:28;8.90;;;6.15;;
79670;SDS011;69137;50.878;8.050;2023-06-26T06:27:54;11.50;;;6.47;;
79670;SDS011;69137;50.878;8.050;2023-06-26T06:30:19;13.02;;;5.88;;
79670;SDS011;69137;50.878;8.050;2023-06-26T06:32:44;8.25;;;5.40;;
79670;SDS011;69137;50.878;8.050;2023-06-26T06:35:11;9.50;;;5.55;;
79670;SDS011;69137;50.878;8.050;2023-06-26T06:37:36;12.98;;;5.60;;
79670;SDS011;69137;50.878;8.050;2023-06-26T06:40:03;10.98;;;6.10;;
79670;SDS011;69137;50.878;8.050;2023-06-26T06:42:34;9.25;;;5.70;;
79670;SDS011;69137;50.878;8.050;2023-06-26T06:45:03;7.88;;;5.80;;
79670;SDS011;69137;50.878;8.050;2023-06-26T06:47:30;9.55;;;5.68;;
79670;SDS011;69137;50.878;8.050;2023-06-26T06:49:55;7.93;;;5.55;;
79670;SDS011;69137;50.878;8.050;2023-06-26T06:52:21;10.25;;;5.75;;
79670;SDS011;69137;50.878;8.050;2023-06-26T06:54:53;14.07;;;6.28;;
79670;SDS011;69137;50.878;8.050;2023-06-26T06:57:19;7.03;;;5.32;;
79670;SDS011;69137;50.878;8.050;2023-06-26T06:59:47;8.13;;;5.80;;
79670;SDS011;69137;50.878;8.050;2023-06-26T07:02:14;7.97;;;5.28;;
79670;SDS011;69137;50.878;8.050;2023-06-26T07:04:41;7.47;;;5.20;;
79670;SDS011;69137;50.878;8.050;2023-06-26T07:07:06;11.90;;;5.10;;
79670;SDS011;69137;50.878;8.050;2023-06-26T07:09:32;9.07;;;5.43;;
79670;SDS011;69137;50.878;8.050;2023-06-26T07:11:57;8.77;;;5.80;;
79670;SDS011;69137;50.878;8.050;2023-06-26T07:14:23;9.80;;;5.15;;
79670;SDS011;69137;50.878;8.050;2023-06-26T07:16:48;9.65;;;5.90;;
79670;SDS011;69137;50.878;8.050;2023-06-26T07:19:14;7.28;;;5.38;;
79670;SDS011;69137;50.878;8.050;2023-06-26T07:21:39;7.85;;;4.70;;
79670;SDS011;69137;50.878;8.050;2023-06-26T07:24:06;8.05;;;5.65;;
79670;SDS011;69137;50.878;8.050;2023-06-26T07:26:31;10.02;;;5.13;;
79670;SDS011;69137;50.878;8.050;2023-06-26T07:28:57;10.88;;;5.88;;
79670;SDS011;69137;50.878;8.050;2023-06-26T07:31:22;7.05;;;5.20;;
79670;SDS011;69137;50.878;8.050;2023-06-26T07:33:48;8.73;;;5.15;;
79670;SDS011;69137;50.878;8.050;2023-06-26T07:36:13;7.28;;;5.10;;
79670;SDS011;69137;50.878;8.050;2023-06-26T07:38:38;6.75;;;5.20;;
79670;SDS011;69137;50.878;8.050;2023-06-26T07:41:04;6.47;;;4.60;;
79670;SDS011;69137;50.878;8.050;2023-06-26T07:43:29;12.45;;;5.63;;
79670;SDS011;69137;50.878;8.050;2023-06-26T07:45:56;12.45;;;6.47;;
79670;SDS011;69137;50.878;8.050;2023-06-26T07:48:23;10.25;;;5.10;;
79670;SDS011;69137;50.878;8.050;2023-06-26T07:50:49;8.95;;;4.82;;
79670;SDS011;69137;50.878;8.050;2023-06-26T07:53:14;7.22;;;4.85;;
79670;SDS011;69137;50.878;8.050;2023-06-26T07:55:40;11.95;;;5.70;;
79670;SDS011;69137;50.878;8.050;2023-06-26T07:58:05;7.28;;;5.20;;
79670;SDS011;69137;50.878;8.050;2023-06-26T08:00:31;7.07;;;5.10;;
79670;SDS011;69137;50.878;8.050;2023-06-26T08:02:57;7.70;;;5.43;;
79670;SDS011;69137;50.878;8.050;2023-06-26T08:05:22;6.65;;;4.82;;
79670;SDS011;69137;50.878;8.050;2023-06-26T08:07:48;9.55;;;5.45;;
79670;SDS011;69137;50.878;8.050;2023-06-26T08:10:13;9.18;;;5.82;;
79670;SDS011;69137;50.878;8.050;2023-06-26T08:12:38;7.82;;;5.80;;
79670;SDS011;69137;50.878;8.050;2023-06-26T08:15:05;6.93;;;5.22;;
79670;SDS011;69137;50.878;8.050;2023-06-26T08:17:31;9.27;;;4.88;;
79670;SDS011;69137;50.878;8.050;2023-06-26T08:19:56;9.02;;;5.53;;
79670;SDS011;69137;50.878;8.050;2023-06-26T08:22:22;8.18;;;5.10;;
79670;SDS011;69137;50.878;8.050;2023-06-26T08:24:47;7.47;;;5.10;;
79670;SDS011;69137;50.878;8.050;2023-06-26T08:27:13;23.92;;;5.63;;
79670;SDS011;69137;50.878;8.050;2023-06-26T08:29:38;11.45;;;5.60;;
79670;SDS011;69137;50.878;8.050;2023-06-26T08:32:03;6.75;;;4.53;;
79670;SDS011;69137;50.878;8.050;2023-06-26T08:34:29;7.68;;;4.50;;
79670;SDS011;69137;50.878;8.050;2023-06-26T08:36:55;7.47;;;3.90;;
79670;SDS011;69137;50.878;8.050;2023-06-26T08:39:20;6.15;;;4.32;;
79670;SDS011;69137;50.878;8.050;2023-06-26T08:41:45;7.32;;;4.35;;
79670;SDS011;69137;50.878;8.050;2023-06-26T08:44:11;6.40;;;4.50;;
79670;SDS011;69137;50.878;8.050;2023-06-26T08:46:36;8.48;;;4.47;;
79670;SDS011;69137;50.878;8.050;2023-06-26T08:52:30;7.10;;;4.90;;
79670;SDS011;69137;50.878;8.050;2023-06-26T08:54:59;7.90;;;4.80;;
79670;SDS011;69137;50.878;8.050;2023-06-26T08:57:26;6.82;;;4.70;;
79670;SDS011;69137;50.878;8.050;2023-06-26T08:59:53;8.73;;;4.93;;
79670;SDS011;69137;50.878;8.050;2023-06-26T09:02:19;8.05;;;4.70;;
79670;SDS011;69137;50.878;8.050;2023-06-26T09:04:48;10.48;;;5.68;;
79670;SDS011;69137;50.878;8.050;2023-06-26T09:07:14;8.20;;;4.85;;
79670;SDS011;69137;50.878;8.050;2023-06-26T09:09:40;7.32;;;4.82;;
79670;SDS011;69137;50.878;8.050;2023-06-26T09:12:05;8.75;;;5.22;;
79670;SDS011;69137;50.878;8.050;2023-06-26T09:14:31;10.18;;;6.00;;
79670;SDS011;69137;50.878;8.050;2023-06-26T09:16:57;7.18;;;4.90;;
79670;SDS011;69137;50.878;8.050;2023-06-26T09:19:23;9.57;;;5.32;;
79670;SDS011;69137;50.878;8.050;2023-06-26T09:21:49;9.10;;;5.20;;
79670;SDS011;69137;50.878;8.050;2023-06-26T09:24:16;12.60;;;5.28;;
79670;SDS011;69137;50.878;8.050;2023-06-26T09:26:42;11.23;;;5.70;;
79670;SDS011;69137;50.878;8.050;2023-06-26T09:29:08;10.07;;;5.13;;
79670;SDS011;69137;50.878;8.050;2023-06-26T09:31:37;10.13;;;6.30;;
79670;SDS011;69137;50.878;8.050;2023-06-26T09:34:04;10.20;;;5.65;;
79670;SDS011;69137;50.878;8.050;2023-06-26T09:36:30;8.82;;;5.65;;
79670;SDS011;69137;50.878;8.050;2023-06-26T09:39:04;9.95;;;4.88;;
79670;SDS011;69137;50.878;8.050;2023-06-26T09:41:34;13.18;;;6.00;;
79670;SDS011;69137;50.878;8.050;2023-06-26T09:44:03;12.30;;;6.15;;
79670;SDS011;69137;50.878;8.050;2023-06-26T09:46:30;12.90;;;6.45;;
79670;SDS011;69137;50.878;8.050;2023-06-26T09:49:06;7.95;;;5.50;;
79670;SDS011;69137;50.878;8.050;2023-06-26T09:51:33;9.30;;;6.05;;
79670;SDS011;69137;50.878;8.050;2023-06-26T09:54:00;8.57;;;5.68;;
79670;SDS011;69137;50.878;8.050;2023-06-26T09:56:27;7.90;;;5.78;;
79670;SDS011;69137;50.878;8.050;2023-06-26T09:58:57;9.70;;;6.03;;
79670;SDS011;69137;50.878;8.050;2023-06-26T10:01:24;9.65;;;5.65;;
79670;SDS011;69137;50.878;8.050;2023-06-26T10:03:50;7.57;;;5.05;;
79670;SDS011;69137;50.878;8.050;2023-06-26T10:06:18;10.85;;;5.78;;
79670;SDS011;69137;50.878;8.050;2023-06-26T10:08:47;7.78;;;5.47;;
79670;SDS011;69137;50.878;8.050;2023-06-26T10:11:16;7.13;;;4.55;;
79670;SDS011;69137;50.878;8.050;2023-06-26T10:13:44;7.93;;;5.40;;
79670;SDS011;69137;50.878;8.050;2023-06-26T10:16:12;7.53;;;5.75;;
79670;SDS011;69137;50.878;8.050;2023-06-26T10:18:42;9.70;;;5.75;;
79670;SDS011;69137;50.878;8.050;2023-06-26T10:21:08;8.60;;;5.47;;
79670;SDS011;69137;50.878;8.050;2023-06-26T10:23:37;9.18;;;5.60;;
79670;SDS011;69137;50.878;8.050;2023-06-26T10:26:06;8.38;;;4.97;;
79670;SDS011;69137;50.878;8.050;2023-06-26T10:28:33;6.63;;;4.80;;
79670;SDS011;69137;50.878;8.050;2023-06-26T10:31:00;8.05;;;5.22;;
79670;SDS011;69137;50.878;8.050;2023-06-26T10:38:51;10.70;;;5.13;;
79670;SDS011;69137;50.878;8.050;2023-06-26T10:41:20;7.15;;;4.47;;
79670;SDS011;69137;50.878;8.050;2023-06-26T10:44:06;9.20;;;4.68;;
79670;SDS011;69137;50.878;8.050;2023-06-26T10:46:51;8.85;;;4.57;;
79670;SDS011;69137;50.878;8.050;2023-06-26T10:49:18;11.02;;;4.93;;
79670;SDS011;69137;50.878;8.050;2023-06-26T10:51:48;6.22;;;4.15;;
79670;SDS011;69137;50.878;8.050;2023-06-26T10:54:15;5.90;;;3.85;;
79670;SDS011;69137;50.878;8.050;2023-06-26T10:56:43;6.68;;;4.63;;
79670;SDS011;69137;50.878;8.050;2023-06-26T10:59:13;7.55;;;4.95;;
79670;SDS011;69137;50.878;8.050;2023-06-26T11:01:42;10.55;;;4.70;;
79670;SDS011;69137;50.878;8.050;2023-06-26T11:04:09;7.55;;;4.93;;
79670;SDS011;69137;50.878;8.050;2023-06-26T11:06:36;7.85;;;5.20;;
79670;SDS011;69137;50.878;8.050;2023-06-26T11:14:16;7.85;;;4.60;;
79670;SDS011;69137;50.878;8.050;2023-06-26T11:16:43;10.68;;;4.85;;
79670;SDS011;69137;50.878;8.050;2023-06-26T11:19:09;7.03;;;4.28;;
79670;SDS011;69137;50.878;8.050;2023-06-26T11:21:35;12.93;;;4.63;;
79670;SDS011;69137;50.878;8.050;2023-06-26T11:24:04;13.90;;;4.65;;
79670;SDS011;69137;50.878;8.050;2023-06-26T11:26:31;10.07;;;4.35;;
79670;SDS011;69137;50.878;8.050;2023-06-26T11:29:03;5.65;;;3.80;;
79670;SDS011;69137;50.878;8.050;2023-06-26T11:31:36;7.00;;;3.63;;
79670;SDS011;69137;50.878;8.050;2023-06-26T11:34:05;8.02;;;3.58;;
79670;SDS011;69137;50.878;8.050;2023-06-26T11:36:33;6.65;;;3.47;;
79670;SDS011;69137;50.878;8.050;2023-06-26T11:39:02;5.55;;;3.30;;
79670;SDS011;69137;50.878;8.050;2023-06-26T11:41:33;7.28;;;3.38;;
79670;SDS011;69137;50.878;8.050;2023-06-26T11:44:01;9.77;;;3.25;;
79670;SDS011;69137;50.878;8.050;2023-06-26T11:46:28;7.88;;;3.35;;
79670;SDS011;69137;50.878;8.050;2023-06-26T11:48:53;5.93;;;3.17;;
79670;SDS011;69137;50.878;8.050;2023-06-26T11:51:19;7.05;;;3.35;;
79670;SDS011;69137;50.878;8.050;2023-06-26T11:53:46;7.72;;;3.58;;
79670;SDS011;69137;50.878;8.050;2023-06-26T11:56:13;7.75;;;3.42;;
79670;SDS011;69137;50.878;8.050;2023-06-26T11:58:59;7.55;;;3.63;;
79670;SDS011;69137;50.878;8.050;2023-06-26T12:01:40;7.25;;;3.45;;
79670;SDS011;69137;50.878;8.050;2023-06-26T12:04:08;4.45;;;2.47;;
79670;SDS011;69137;50.878;8.050;2023-06-26T12:06:36;6.68;;;2.65;;
79670;SDS011;69137;50.878;8.050;2023-06-26T12:09:07;12.15;;;3.05;;
79670;SDS011;69137;50.878;8.050;2023-06-26T12:11:37;8.63;;;3.33;;
79670;SDS011;69137;50.878;8.050;2023-06-26T12:14:05;8.93;;;3.17;;
79670;SDS011;69137;50.878;8.050;2023-06-26T12:16:32;7.85;;;3.08;;
79670;SDS011;69137;50.878;8.050;2023-06-26T12:19:02;7.18;;;3.03;;
79670;SDS011;69137;50.878;8.050;2023-06-26T12:21:34;6.07;;;3.10;;
79670;SDS011;69137;50.878;8.050;2023-06-26T12:24:20;5.32;;;2.70;;
79670;SDS011;69137;50.878;8.050;2023-06-26T12:26:49;5.80;;;3.10;;
79670;SDS011;69137;50.878;8.050;2023-06-26T12:29:18;5.47;;;2.78;;
79670;SDS011;69137;50.878;8.050;2023-06-26T12:31:45;7.97;;;3.50;;
79670;SDS011;69137;50.878;8.050;2023-06-26T12:34:15;7.50;;;3.47;;
79670;SDS011;69137;50.878;8.050;2023-06-26T12:36:49;9.45;;;3.40;;
79670;SDS011;69137;50.878;8.050;2023-06-26T12:39:17;8.57;;;3.47;;
79670;SDS011;69137;50.878;8.050;2023-06-26T12:41:44;6.72;;;3.22;;
79670;SDS011;69137;50.878;8.050;2023-06-26T12:44:20;6.28;;;2.85;;
79670;SDS011;69137;50.878;8.050;2023-06-26T12:46:59;8.05;;;3.22;;
79670;SDS011;69137;50.878;8.050;2023-06-26T12:49:30;4.97;;;2.92;;
79670;SDS011;69137;50.878;8.050;2023-06-26T12:51:56;5.80;;;2.95;;
79670;SDS011;69137;50.878;8.050;2023-06-26T12:54:22;5.53;;;3.00;;
79670;SDS011;69137;50.878;8.050;2023-06-26T12:56:47;7.32;;;2.85;;
79670;SDS011;69137;50.878;8.050;2023-06-26T12:59:12;9.55;;;3.60;;
79670;SDS011;69137;50.878;8.050;2023-06-26T13:01:38;6.45;;;2.72;;
79670;SDS011;69137;50.878;8.050;2023-06-26T13:04:05;6.55;;;2.50;;
79670;SDS011;69137;50.878;8.050;2023-06-26T13:06:30;8.32;;;2.88;;
79670;SDS011;69137;50.878;8.050;2023-06-26T13:08:57;5.30;;;2.60;;
79670;SDS011;69137;50.878;8.050;2023-06-26T13:11:23;11.02;;;2.75;;
79670;SDS011;69137;50.878;8.050;2023-06-26T13:13:48;7.28;;;2.58;;
79670;SDS011;69137;50.878;8.050;2023-06-26T13:16:14;4.93;;;2.80;;
79670;SDS011;69137;50.878;8.050;2023-06-26T13:18:39;10.75;;;3.35;;
79670;SDS011;69137;50.878;8.050;2023-06-26T13:21:05;6.28;;;2.33;;
79670;SDS011;69137;50.878;8.050;2023-06-26T13:23:30;7.57;;;2.45;;
79670;SDS011;69137;50.878;8.050;2023-06-26T13:25:55;7.22;;;2.50;;
79670;SDS011;69137;50.878;8.050;2023-06-26T13:28:21;4.25;;;2.40;;
79670;SDS011;69137;50.878;8.050;2023-06-26T13:30:47;5.45;;;2.80;;
79670;SDS011;69137;50.878;8.050;2023-06-26T13:33:12;6.43;;;2.75;;
79670;SDS011;69137;50.878;8.050;2023-06-26T13:35:38;6.18;;;2.60;;
79670;SDS011;69137;50.878;8.050;2023-06-26T13:38:03;4.75;;;2.63;;
79670;SDS011;69137;50.878;8.050;2023-06-26T13:40:29;5.13;;;2.72;;
79670;SDS011;69137;50.878;8.050;2023-06-26T13:42:54;5.47;;;2.63;;
79670;SDS011;69137;50.878;8.050;2023-06-26T13:45:19;4.20;;;2.22;;
79670;SDS011;69137;50.878;8.050;2023-06-26T13:47:45;5.32;;;2.90;;
79670;SDS011;69137;50.878;8.050;2023-06-26T13:50:10;5.97;;;2.63;;
79670;SDS011;69137;50.878;8.050;2023-06-26T13:52:36;7.32;;;2.65;;
79670;SDS011;69137;50.878;8.050;2023-06-26T13:55:02;13.05;;;2.55;;
79670;SDS011;69137;50.878;8.050;2023-06-26T13:57:31;5.88;;;2.90;;
79670;SDS011;69137;50.878;8.050;2023-06-26T13:59:56;6.72;;;2.78;;
79670;SDS011;69137;50.878;8.050;2023-06-26T14:02:22;8.57;;;2.30;;
79670;SDS011;69137;50.878;8.050;2023-06-26T14:04:48;5.63;;;2.83;;
79670;SDS011;69137;50.878;8.050;2023-06-26T14:07:13;7.72;;;2.58;;
79670;SDS011;69137;50.878;8.050;2023-06-26T14:09:39;4.57;;;2.65;;
79670;SDS011;69137;50.878;8.050;2023-06-26T14:12:05;7.18;;;2.75;;
79670;SDS011;69137;50.878;8.050;2023-06-26T14:14:32;5.85;;;2.70;;
79670;SDS011;69137;50.878;8.050;2023-06-26T14:16:57;3.47;;;1.92;;
79670;SDS011;69137;50.878;8.050;2023-06-26T14:19:24;7.30;;;2.05;;
79670;SDS011;69137;50.878;8.050;2023-06-26T14:21:49;5.97;;;2.10;;
79670;SDS011;69137;50.878;8.050;2023-06-26T14:24:15;4.40;;;2.42;;
79670;SDS011;69137;50.878;8.050;2023-06-26T14:26:40;5.13;;;2.30;;
79670;SDS011;69137;50.878;8.050;2023-06-26T14:29:06;5.68;;;2.20;;
79670;SDS011;69137;50.878;8.050;2023-06-26T14:31:31;5.38;;;2.60;;
79670;SDS011;69137;50.878;8.050;2023-06-26T14:33:57;4.03;;;2.08;;
79670;SDS011;69137;50.878;8.050;2023-06-26T14:36:24;4.57;;;2.15;;
79670;SDS011;69137;50.878;8.050;2023-06-26T14:38:49;4.22;;;2.13;;
79670;SDS011;69137;50.878;8.050;2023-06-26T14:41:15;5.80;;;2.30;;
79670;SDS011;69137;50.878;8.050;2023-06-26T14:43:40;4.38;;;2.50;;
79670;SDS011;69137;50.878;8.050;2023-06-26T14:46:06;4.30;;;2.25;;
79670;SDS011;69137;50.878;8.050;2023-06-26T14:48:31;7.10;;;2.38;;
79670;SDS011;69137;50.878;8.050;2023-06-26T14:50:56;6.53;;;2.80;;
79670;SDS011;69137;50.878;8.050;2023-06-26T14:53:22;5.07;;;2.50;;
79670;SDS011;69137;50.878;8.050;2023-06-26T14:55:47;5.93;;;2.53;;
79670;SDS011;69137;50.878;8.050;2023-06-26T14:58:13;3.90;;;2.05;;
79670;SDS011;69137;50.878;8.050;2023-06-26T15:00:38;6.03;;;2.60;;
79670;SDS011;69137;50.878;8.050;2023-06-26T15:03:04;4.72;;;2.00;;
79670;SDS011;69137;50.878;8.050;2023-06-26T15:05:29;5.15;;;1.85;;
79670;SDS011;69137;50.878;8.050;2023-06-26T15:07:55;4.35;;;1.70;;